sensor_id;sensor_type;location;lat;lon;timestamp;P1;durP1;ratioP1;P2;durP2;ratioP2
44704;SDS011;30431;48.520;9.046;2023-07-31T00:00:58;9.15;;;3.40;;
44704;SDS011;30431;48.520;9.046;2023-07-31T00:03:27;8.32;;;3.20;;
44704;SDS011;30431;48.520;9.046;2023-07-31T00:05:54;6.22;;;2.90;;
44704;SDS011;30431;48.520;9.046;2023-07-31T00:08:21;4.82;;;2.88;;
44704;SDS011;30431;48.520;9.046;2023-07-31T00:10:51;8.80;;;2.70;;
44704;SDS011;30431;48.520;9.046;2023-07-31T00:13:21;4.53;;;2.70;;
44704;SDS011;30431;48.520;9.046;2023-07-31T00:15:50;6.30;;;2.83;;
44704;SDS011;30431;48.520;9.046;2023-07-31T00:18:17;6.88;;;3.13;;
44704;SDS011;30431;48.520;9.046;2023-07-31T00:20:44;6.45;;;2.75;;
44704;SDS011;30431;48.520;9.046;2023-07-31T00:23:14;8.23;;;2.80;;
44704;SDS011;30431;48.520;9.046;2023-07-31T00:25:41;7.65;;;2.83;;
44704;SDS011;30431;48.520;9.046;2023-07-31T00:30:35;5.72;;;2.58;;
44704;SDS011;30431;48.520;9.046;2023-07-31T00:33:04;8.50;;;2.97;;
44704;SDS011;30431;48.520;9.046;2023-07-31T00:35:36;7.72;;;2.83;;
44704;SDS011;30431;48.520;9.046;2023-07-31T00:38:05;7.53;;;3.03;;
44704;SDS011;30431;48.520;9.046;2023-07-31T00:40:35;7.25;;;3.05;;
44704;SDS011;30431;48.520;9.046;2023-07-31T00:43:05;7.32;;;2.90;;
44704;SDS011;30431;48.520;9.046;2023-07-31T00:45:33;7.93;;;3.40;;
44704;SDS011;30431;48.520;9.046;2023-07-31T00:48:03;4.70;;;2.78;;
44704;SDS011;30431;48.520;9.046;2023-07-31T00:50:33;6.28;;;2.97;;
44704;SDS011;30431;48.520;9.046;2023-07-31T00:53:01;9.40;;;3.30;;
44704;SDS011;30431;48.520;9.046;2023-07-31T00:58:20;6.03;;;2.80;;
44704;SDS011;30431;48.520;9.046;2023-07-31T01:00:47;7.60;;;3.25;;
44704;SDS011;30431;48.520;9.046;2023-07-31T01:03:17;4.72;;;2.90;;
44704;SDS011;30431;48.520;9.046;2023-07-31T01:11:07;6.75;;;2.83;;
44704;SDS011;30431;48.520;9.046;2023-07-31T01:13:43;5.82;;;2.88;;
44704;SDS011;30431;48.520;9.046;2023-07-31T01:16:11;5.60;;;2.67;;
44704;SDS011;30431;48.520;9.046;2023-07-31T01:18:41;6.15;;;2.92;;
44704;SDS011;30431;48.520;9.046;2023-07-31T01:21:21;7.03;;;3.20;;
44704;SDS011;30431;48.520;9.046;2023-07-31T01:26:45;6.55;;;3.45;;
44704;SDS011;30431;48.520;9.046;2023-07-31T01:32:13;7.68;;;3.13;;
44704;SDS011;30431;48.520;9.046;2023-07-31T01:34:44;7.82;;;2.88;;
44704;SDS011;30431;48.520;9.046;2023-07-31T01:37:13;8.63;;;3.03;;
44704;SDS011;30431;48.520;9.046;2023-07-31T01:39:40;6.28;;;2.78;;
44704;SDS011;30431;48.520;9.046;2023-07-31T01:42:10;6.35;;;2.97;;
44704;SDS011;30431;48.520;9.046;2023-07-31T01:44:37;7.40;;;3.10;;
44704;SDS011;30431;48.520;9.046;2023-07-31T01:47:04;6.85;;;3.35;;
44704;SDS011;30431;48.520;9.046;2023-07-31T01:49:34;6.82;;;3.10;;
44704;SDS011;30431;48.520;9.046;2023-07-31T01:52:01;8.88;;;3.40;;
44704;SDS011;30431;48.520;9.046;2023-07-31T01:54:28;5.05;;;2.85;;
44704;SDS011;30431;48.520;9.046;2023-07-31T01:57:00;5.22;;;2.60;;
44704;SDS011;30431;48.520;9.046;2023-07-31T01:59:33;5.80;;;2.55;;
44704;SDS011;30431;48.520;9.046;2023-07-31T02:02:00;4.95;;;2.92;;
44704;SDS011;30431;48.520;9.046;2023-07-31T02:04:29;7.65;;;3.30;;
44704;SDS011;30431;48.520;9.046;2023-07-31T02:06:58;9.27;;;3.47;;
44704;SDS011;30431;48.520;9.046;2023-07-31T02:09:25;5.90;;;2.97;;
44704;SDS011;30431;48.520;9.046;2023-07-31T02:11:55;5.70;;;2.80;;
44704;SDS011;30431;48.520;9.046;2023-07-31T02:14:22;6.18;;;2.90;;
44704;SDS011;30431;48.520;9.046;2023-07-31T02:16:51;9.23;;;2.97;;
44704;SDS011;30431;48.520;9.046;2023-07-31T02:19:21;6.63;;;3.35;;
44704;SDS011;30431;48.520;9.046;2023-07-31T02:21:48;9.05;;;3.20;;
44704;SDS011;30431;48.520;9.046;2023-07-31T02:24:15;4.63;;;2.83;;
44704;SDS011;30431;48.520;9.046;2023-07-31T02:26:44;4.05;;;2.70;;
44704;SDS011;30431;48.520;9.046;2023-07-31T02:29:13;8.10;;;3.42;;
44704;SDS011;30431;48.520;9.046;2023-07-31T02:31:40;6.80;;;2.75;;
44704;SDS011;30431;48.520;9.046;2023-07-31T02:34:07;7.15;;;2.70;;
44704;SDS011;30431;48.520;9.046;2023-07-31T02:36:34;6.68;;;2.72;;
44704;SDS011;30431;48.520;9.046;2023-07-31T02:39:03;5.28;;;2.65;;
44704;SDS011;30431;48.520;9.046;2023-07-31T02:41:33;5.15;;;2.70;;
44704;SDS011;30431;48.520;9.046;2023-07-31T02:44:00;7.18;;;3.08;;
44704;SDS011;30431;48.520;9.046;2023-07-31T02:46:30;5.45;;;2.70;;
44704;SDS011;30431;48.520;9.046;2023-07-31T02:48:59;5.18;;;2.75;;
44704;SDS011;30431;48.520;9.046;2023-07-31T02:51:28;8.10;;;3.13;;
44704;SDS011;30431;48.520;9.046;2023-07-31T02:53:55;8.00;;;3.08;;
44704;SDS011;30431;48.520;9.046;2023-07-31T02:56:25;9.77;;;3.15;;
44704;SDS011;30431;48.520;9.046;2023-07-31T02:58:52;6.68;;;3.08;;
44704;SDS011;30431;48.520;9.046;2023-07-31T03:01:19;8.38;;;3.30;;
44704;SDS011;30431;48.520;9.046;2023-07-31T03:03:46;4.78;;;3.15;;
44704;SDS011;30431;48.520;9.046;2023-07-31T03:06:13;5.97;;;2.90;;
44704;SDS011;30431;48.520;9.046;2023-07-31T03:08:42;5.85;;;3.15;;
44704;SDS011;30431;48.520;9.046;2023-07-31T03:11:09;11.27;;;3.13;;
44704;SDS011;30431;48.520;9.046;2023-07-31T03:13:39;4.47;;;2.85;;
44704;SDS011;30431;48.520;9.046;2023-07-31T03:16:06;6.88;;;3.30;;
44704;SDS011;30431;48.520;9.046;2023-07-31T03:18:35;7.60;;;3.20;;
44704;SDS011;30431;48.520;9.046;2023-07-31T03:21:02;6.68;;;2.80;;
44704;SDS011;30431;48.520;9.046;2023-07-31T03:23:29;7.93;;;2.97;;
44704;SDS011;30431;48.520;9.046;2023-07-31T03:26:02;6.72;;;3.25;;
44704;SDS011;30431;48.520;9.046;2023-07-31T03:28:30;3.45;;;2.67;;
44704;SDS011;30431;48.520;9.046;2023-07-31T03:30:59;7.13;;;3.20;;
44704;SDS011;30431;48.520;9.046;2023-07-31T03:35:54;5.20;;;2.70;;
44704;SDS011;30431;48.520;9.046;2023-07-31T03:38:21;6.13;;;2.95;;
44704;SDS011;30431;48.520;9.046;2023-07-31T03:40:48;7.47;;;3.50;;
44704;SDS011;30431;48.520;9.046;2023-07-31T03:43:15;8.10;;;4.15;;
44704;SDS011;30431;48.520;9.046;2023-07-31T03:48:10;12.55;;;6.55;;
44704;SDS011;30431;48.520;9.046;2023-07-31T03:50:37;12.15;;;6.63;;
44704;SDS011;30431;48.520;9.046;2023-07-31T03:53:08;6.82;;;3.25;;
44704;SDS011;30431;48.520;9.046;2023-07-31T03:55:35;9.52;;;3.70;;
44704;SDS011;30431;48.520;9.046;2023-07-31T03:58:05;9.52;;;4.57;;
44704;SDS011;30431;48.520;9.046;2023-07-31T04:00:34;8.18;;;3.65;;
44704;SDS011;30431;48.520;9.046;2023-07-31T04:03:01;7.47;;;3.42;;
44704;SDS011;30431;48.520;9.046;2023-07-31T04:05:32;8.75;;;5.20;;
44704;SDS011;30431;48.520;9.046;2023-07-31T04:08:00;14.70;;;7.00;;
44704;SDS011;30431;48.520;9.046;2023-07-31T04:10:27;23.13;;;11.82;;
44704;SDS011;30431;48.520;9.046;2023-07-31T04:13:00;41.15;;;16.35;;
44704;SDS011;30431;48.520;9.046;2023-07-31T04:15:27;24.00;;;10.35;;
44704;SDS011;30431;48.520;9.046;2023-07-31T04:17:54;18.17;;;9.25;;
44704;SDS011;30431;48.520;9.046;2023-07-31T04:20:21;16.83;;;7.88;;
44704;SDS011;30431;48.520;9.046;2023-07-31T04:22:48;21.85;;;8.18;;
44704;SDS011;30431;48.520;9.046;2023-07-31T04:25:18;13.85;;;6.53;;
44704;SDS011;30431;48.520;9.046;2023-07-31T04:27:45;15.07;;;5.13;;
44704;SDS011;30431;48.520;9.046;2023-07-31T04:30:13;8.15;;;4.82;;
44704;SDS011;30431;48.520;9.046;2023-07-31T04:32:42;10.40;;;4.47;;
44704;SDS011;30431;48.520;9.046;2023-07-31T04:35:10;10.60;;;4.68;;
44704;SDS011;30431;48.520;9.046;2023-07-31T04:37:40;6.13;;;3.63;;
44704;SDS011;30431;48.520;9.046;2023-07-31T04:40:08;9.68;;;4.65;;
44704;SDS011;30431;48.520;9.046;2023-07-31T04:42:37;8.93;;;3.78;;
44704;SDS011;30431;48.520;9.046;2023-07-31T04:45:04;7.55;;;3.63;;
44704;SDS011;30431;48.520;9.046;2023-07-31T04:47:32;8.68;;;3.58;;
44704;SDS011;30431;48.520;9.046;2023-07-31T04:49:59;8.55;;;3.40;;
44704;SDS011;30431;48.520;9.046;2023-07-31T04:52:26;10.77;;;3.03;;
44704;SDS011;30431;48.520;9.046;2023-07-31T04:54:53;8.65;;;3.28;;
44704;SDS011;30431;48.520;9.046;2023-07-31T04:57:19;5.07;;;2.80;;
44704;SDS011;30431;48.520;9.046;2023-07-31T04:59:49;5.38;;;3.05;;
44704;SDS011;30431;48.520;9.046;2023-07-31T05:02:16;4.85;;;2.33;;
44704;SDS011;30431;48.520;9.046;2023-07-31T05:04:44;7.03;;;2.80;;
44704;SDS011;30431;48.520;9.046;2023-07-31T05:07:13;7.78;;;2.63;;
44704;SDS011;30431;48.520;9.046;2023-07-31T05:09:45;4.72;;;2.78;;
44704;SDS011;30431;48.520;9.046;2023-07-31T05:12:12;5.45;;;2.78;;
44704;SDS011;30431;48.520;9.046;2023-07-31T05:14:42;7.97;;;2.65;;
44704;SDS011;30431;48.520;9.046;2023-07-31T05:17:11;7.13;;;2.88;;
44704;SDS011;30431;48.520;9.046;2023-07-31T05:19:38;6.78;;;2.85;;
44704;SDS011;30431;48.520;9.046;2023-07-31T05:22:06;8.45;;;2.72;;
44704;SDS011;30431;48.520;9.046;2023-07-31T05:24:33;8.63;;;2.97;;
44704;SDS011;30431;48.520;9.046;2023-07-31T05:27:00;6.05;;;3.25;;
44704;SDS011;30431;48.520;9.046;2023-07-31T05:29:27;9.85;;;3.67;;
44704;SDS011;30431;48.520;9.046;2023-07-31T05:31:56;8.23;;;2.90;;
44704;SDS011;30431;48.520;9.046;2023-07-31T05:34:26;7.90;;;3.00;;
44704;SDS011;30431;48.520;9.046;2023-07-31T05:36:53;8.18;;;3.10;;
44704;SDS011;30431;48.520;9.046;2023-07-31T05:39:20;3.88;;;2.92;;
44704;SDS011;30431;48.520;9.046;2023-07-31T05:41:49;6.63;;;3.05;;
44704;SDS011;30431;48.520;9.046;2023-07-31T05:44:16;6.72;;;2.83;;
44704;SDS011;30431;48.520;9.046;2023-07-31T05:46:45;6.43;;;3.38;;
44704;SDS011;30431;48.520;9.046;2023-07-31T05:49:12;4.50;;;2.60;;
44704;SDS011;30431;48.520;9.046;2023-07-31T05:51:41;5.90;;;2.80;;
44704;SDS011;30431;48.520;9.046;2023-07-31T05:54:13;8.05;;;2.70;;
44704;SDS011;30431;48.520;9.046;2023-07-31T05:56:40;4.95;;;2.53;;
44704;SDS011;30431;48.520;9.046;2023-07-31T05:59:08;5.93;;;2.45;;
44704;SDS011;30431;48.520;9.046;2023-07-31T06:01:41;4.40;;;2.58;;
44704;SDS011;30431;48.520;9.046;2023-07-31T06:04:10;6.30;;;2.60;;
44704;SDS011;30431;48.520;9.046;2023-07-31T06:06:37;5.60;;;2.50;;
44704;SDS011;30431;48.520;9.046;2023-07-31T06:09:07;4.15;;;2.50;;
44704;SDS011;30431;48.520;9.046;2023-07-31T06:11:34;4.93;;;2.60;;
44704;SDS011;30431;48.520;9.046;2023-07-31T06:14:01;5.95;;;2.72;;
44704;SDS011;30431;48.520;9.046;2023-07-31T06:16:31;4.88;;;2.65;;
44704;SDS011;30431;48.520;9.046;2023-07-31T06:18:59;7.22;;;2.65;;
44704;SDS011;30431;48.520;9.046;2023-07-31T06:21:28;7.63;;;2.80;;
44704;SDS011;30431;48.520;9.046;2023-07-31T06:23:58;8.70;;;3.13;;
44704;SDS011;30431;48.520;9.046;2023-07-31T06:26:29;4.32;;;2.10;;
44704;SDS011;30431;48.520;9.046;2023-07-31T06:29:06;6.43;;;2.63;;
44704;SDS011;30431;48.520;9.046;2023-07-31T06:31:33;6.97;;;2.97;;
44704;SDS011;30431;48.520;9.046;2023-07-31T06:36:30;5.15;;;2.63;;
44704;SDS011;30431;48.520;9.046;2023-07-31T06:39:09;7.25;;;3.20;;
44704;SDS011;30431;48.520;9.046;2023-07-31T06:41:38;7.35;;;2.35;;
44704;SDS011;30431;48.520;9.046;2023-07-31T06:44:09;6.30;;;2.63;;
44704;SDS011;30431;48.520;9.046;2023-07-31T06:46:37;5.45;;;2.50;;
44704;SDS011;30431;48.520;9.046;2023-07-31T06:49:05;4.82;;;2.72;;
44704;SDS011;30431;48.520;9.046;2023-07-31T06:51:34;5.18;;;2.55;;
44704;SDS011;30431;48.520;9.046;2023-07-31T06:54:02;6.65;;;2.47;;
44704;SDS011;30431;48.520;9.046;2023-07-31T06:58:59;4.35;;;2.55;;
44704;SDS011;30431;48.520;9.046;2023-07-31T07:01:28;3.38;;;2.38;;
44704;SDS011;30431;48.520;9.046;2023-07-31T07:06:22;5.35;;;2.25;;
44704;SDS011;30431;48.520;9.046;2023-07-31T07:08:49;8.38;;;2.40;;
44704;SDS011;30431;48.520;9.046;2023-07-31T07:11:18;5.50;;;2.90;;
44704;SDS011;30431;48.520;9.046;2023-07-31T07:13:48;6.25;;;2.58;;
44704;SDS011;30431;48.520;9.046;2023-07-31T07:16:15;5.68;;;2.90;;
44704;SDS011;30431;48.520;9.046;2023-07-31T07:18:42;6.13;;;2.85;;
44704;SDS011;30431;48.520;9.046;2023-07-31T07:21:23;5.65;;;2.60;;
44704;SDS011;30431;48.520;9.046;2023-07-31T07:23:53;5.15;;;3.17;;
44704;SDS011;30431;48.520;9.046;2023-07-31T07:26:20;10.80;;;3.85;;
44704;SDS011;30431;48.520;9.046;2023-07-31T07:28:47;7.95;;;4.90;;
44704;SDS011;30431;48.520;9.046;2023-07-31T07:31:16;8.90;;;4.20;;
44704;SDS011;30431;48.520;9.046;2023-07-31T07:36:12;3.80;;;2.40;;
44704;SDS011;30431;48.520;9.046;2023-07-31T07:38:39;7.65;;;2.33;;
44704;SDS011;30431;48.520;9.046;2023-07-31T07:41:07;3.72;;;2.42;;
44704;SDS011;30431;48.520;9.046;2023-07-31T07:43:37;6.35;;;3.10;;
44704;SDS011;30431;48.520;9.046;2023-07-31T07:46:03;7.80;;;2.60;;
44704;SDS011;30431;48.520;9.046;2023-07-31T07:48:35;5.75;;;2.33;;
44704;SDS011;30431;48.520;9.046;2023-07-31T07:51:02;4.75;;;2.50;;
44704;SDS011;30431;48.520;9.046;2023-07-31T07:53:29;6.97;;;2.80;;
44704;SDS011;30431;48.520;9.046;2023-07-31T07:55:56;3.75;;;2.30;;
44704;SDS011;30431;48.520;9.046;2023-07-31T07:58:23;5.70;;;2.67;;
44704;SDS011;30431;48.520;9.046;2023-07-31T08:00:52;4.97;;;2.00;;
44704;SDS011;30431;48.520;9.046;2023-07-31T08:03:24;6.55;;;2.50;;
44704;SDS011;30431;48.520;9.046;2023-07-31T08:05:57;6.72;;;2.80;;
44704;SDS011;30431;48.520;9.046;2023-07-31T08:08:25;4.82;;;2.67;;
44704;SDS011;30431;48.520;9.046;2023-07-31T08:10:52;4.50;;;2.30;;
44704;SDS011;30431;48.520;9.046;2023-07-31T08:13:19;5.22;;;2.60;;
44704;SDS011;30431;48.520;9.046;2023-07-31T08:15:47;5.07;;;2.50;;
44704;SDS011;30431;48.520;9.046;2023-07-31T08:18:19;6.63;;;2.70;;
44704;SDS011;30431;48.520;9.046;2023-07-31T08:20:46;4.47;;;2.50;;
44704;SDS011;30431;48.520;9.046;2023-07-31T08:23:13;5.00;;;2.50;;
44704;SDS011;30431;48.520;9.046;2023-07-31T08:25:40;5.25;;;2.70;;
44704;SDS011;30431;48.520;9.046;2023-07-31T08:28:08;5.47;;;2.88;;
44704;SDS011;30431;48.520;9.046;2023-07-31T08:30:37;7.22;;;2.90;;
44704;SDS011;30431;48.520;9.046;2023-07-31T08:33:06;6.60;;;3.42;;
44704;SDS011;30431;48.520;9.046;2023-07-31T08:35:36;8.70;;;3.08;;
44704;SDS011;30431;48.520;9.046;2023-07-31T08:38:03;6.00;;;2.60;;
44704;SDS011;30431;48.520;9.046;2023-07-31T08:40:35;7.03;;;3.20;;
44704;SDS011;30431;48.520;9.046;2023-07-31T08:43:04;7.57;;;4.30;;
44704;SDS011;30431;48.520;9.046;2023-07-31T08:45:33;5.90;;;2.60;;
44704;SDS011;30431;48.520;9.046;2023-07-31T08:48:01;4.15;;;2.53;;
44704;SDS011;30431;48.520;9.046;2023-07-31T08:50:30;5.35;;;2.58;;
44704;SDS011;30431;48.520;9.046;2023-07-31T08:53:00;7.07;;;2.63;;
44704;SDS011;30431;48.520;9.046;2023-07-31T08:55:29;8.52;;;2.80;;
44704;SDS011;30431;48.520;9.046;2023-07-31T08:57:57;7.38;;;2.83;;
44704;SDS011;30431;48.520;9.046;2023-07-31T09:00:26;5.03;;;2.55;;
44704;SDS011;30431;48.520;9.046;2023-07-31T09:05:29;5.43;;;2.72;;
44704;SDS011;30431;48.520;9.046;2023-07-31T09:10:58;6.10;;;2.90;;
44704;SDS011;30431;48.520;9.046;2023-07-31T09:13:28;5.13;;;2.60;;
44704;SDS011;30431;48.520;9.046;2023-07-31T09:15:56;5.78;;;2.75;;
44704;SDS011;30431;48.520;9.046;2023-07-31T09:18:24;7.13;;;2.90;;
44704;SDS011;30431;48.520;9.046;2023-07-31T09:21:02;9.32;;;2.88;;
44704;SDS011;30431;48.520;9.046;2023-07-31T09:23:40;5.03;;;2.95;;
44704;SDS011;30431;48.520;9.046;2023-07-31T09:26:11;7.53;;;2.42;;
44704;SDS011;30431;48.520;9.046;2023-07-31T09:28:38;8.48;;;2.72;;
44704;SDS011;30431;48.520;9.046;2023-07-31T09:36:01;13.63;;;3.33;;
44704;SDS011;30431;48.520;9.046;2023-07-31T09:38:31;8.25;;;3.17;;
44704;SDS011;30431;48.520;9.046;2023-07-31T09:40:58;6.97;;;3.05;;
44704;SDS011;30431;48.520;9.046;2023-07-31T09:43:26;6.18;;;3.10;;
44704;SDS011;30431;48.520;9.046;2023-07-31T09:45:55;6.45;;;2.88;;
44704;SDS011;30431;48.520;9.046;2023-07-31T09:48:24;8.27;;;2.83;;
44704;SDS011;30431;48.520;9.046;2023-07-31T09:50:54;6.28;;;3.10;;
44704;SDS011;30431;48.520;9.046;2023-07-31T09:53:27;8.00;;;3.22;;
44704;SDS011;30431;48.520;9.046;2023-07-31T09:55:58;6.45;;;3.00;;
44704;SDS011;30431;48.520;9.046;2023-07-31T09:58:26;6.45;;;2.60;;
44704;SDS011;30431;48.520;9.046;2023-07-31T10:00:55;8.43;;;3.10;;
44704;SDS011;30431;48.520;9.046;2023-07-31T10:03:24;4.90;;;2.50;;
44704;SDS011;30431;48.520;9.046;2023-07-31T10:05:53;7.50;;;2.90;;
44704;SDS011;30431;48.520;9.046;2023-07-31T10:08:23;5.90;;;3.20;;
44704;SDS011;30431;48.520;9.046;2023-07-31T10:10:58;5.20;;;2.53;;
44704;SDS011;30431;48.520;9.046;2023-07-31T10:13:27;5.50;;;2.90;;
44704;SDS011;30431;48.520;9.046;2023-07-31T10:15:56;7.22;;;3.08;;
44704;SDS011;30431;48.520;9.046;2023-07-31T10:18:27;7.35;;;3.40;;
44704;SDS011;30431;48.520;9.046;2023-07-31T10:20:55;6.53;;;2.90;;
44704;SDS011;30431;48.520;9.046;2023-07-31T10:23:23;5.63;;;3.13;;
44704;SDS011;30431;48.520;9.046;2023-07-31T10:25:53;7.82;;;3.22;;
44704;SDS011;30431;48.520;9.046;2023-07-31T10:28:21;8.18;;;3.13;;
44704;SDS011;30431;48.520;9.046;2023-07-31T10:30:51;7.50;;;3.20;;
44704;SDS011;30431;48.520;9.046;2023-07-31T10:33:18;7.22;;;3.35;;
44704;SDS011;30431;48.520;9.046;2023-07-31T10:35:49;7.30;;;3.50;;
44704;SDS011;30431;48.520;9.046;2023-07-31T10:38:17;8.38;;;3.30;;
44704;SDS011;30431;48.520;9.046;2023-07-31T10:40:47;7.90;;;3.53;;
44704;SDS011;30431;48.520;9.046;2023-07-31T10:43:25;9.38;;;3.97;;
44704;SDS011;30431;48.520;9.046;2023-07-31T10:45:53;5.95;;;3.03;;
44704;SDS011;30431;48.520;9.046;2023-07-31T10:50:48;5.85;;;3.17;;
44704;SDS011;30431;48.520;9.046;2023-07-31T10:53:25;7.35;;;2.90;;
44704;SDS011;30431;48.520;9.046;2023-07-31T10:56:02;5.70;;;2.70;;
44704;SDS011;30431;48.520;9.046;2023-07-31T10:58:32;6.22;;;2.90;;
44704;SDS011;30431;48.520;9.046;2023-07-31T11:01:02;7.18;;;2.80;;
44704;SDS011;30431;48.520;9.046;2023-07-31T11:03:43;8.00;;;3.30;;
44704;SDS011;30431;48.520;9.046;2023-07-31T11:06:13;5.97;;;2.70;;
44704;SDS011;30431;48.520;9.046;2023-07-31T11:08:44;6.65;;;3.13;;
44704;SDS011;30431;48.520;9.046;2023-07-31T11:11:19;5.20;;;2.58;;
44704;SDS011;30431;48.520;9.046;2023-07-31T11:13:50;8.43;;;3.05;;
44704;SDS011;30431;48.520;9.046;2023-07-31T11:16:20;4.32;;;2.72;;
44704;SDS011;30431;48.520;9.046;2023-07-31T11:18:49;4.97;;;2.97;;
44704;SDS011;30431;48.520;9.046;2023-07-31T11:21:18;9.50;;;2.80;;
44704;SDS011;30431;48.520;9.046;2023-07-31T11:23:55;6.63;;;3.25;;
44704;SDS011;30431;48.520;9.046;2023-07-31T11:26:29;8.47;;;3.00;;
44704;SDS011;30431;48.520;9.046;2023-07-31T11:28:57;5.78;;;2.88;;
44704;SDS011;30431;48.520;9.046;2023-07-31T11:31:24;4.53;;;2.80;;
44704;SDS011;30431;48.520;9.046;2023-07-31T11:34:06;6.85;;;2.95;;
44704;SDS011;30431;48.520;9.046;2023-07-31T11:36:39;6.30;;;3.20;;
44704;SDS011;30431;48.520;9.046;2023-07-31T11:39:09;7.13;;;3.05;;
44704;SDS011;30431;48.520;9.046;2023-07-31T11:41:40;5.85;;;3.10;;
44704;SDS011;30431;48.520;9.046;2023-07-31T11:44:10;6.93;;;3.38;;
44704;SDS011;30431;48.520;9.046;2023-07-31T11:46:53;6.82;;;3.65;;
44704;SDS011;30431;48.520;9.046;2023-07-31T11:49:25;6.47;;;3.20;;
44704;SDS011;30431;48.520;9.046;2023-07-31T11:51:55;6.85;;;3.47;;
44704;SDS011;30431;48.520;9.046;2023-07-31T11:54:26;6.43;;;3.85;;
44704;SDS011;30431;48.520;9.046;2023-07-31T11:59:20;6.20;;;3.22;;
44704;SDS011;30431;48.520;9.046;2023-07-31T12:04:20;6.28;;;3.20;;
44704;SDS011;30431;48.520;9.046;2023-07-31T12:06:48;6.90;;;3.65;;
44704;SDS011;30431;48.520;9.046;2023-07-31T12:09:16;7.75;;;3.72;;
44704;SDS011;30431;48.520;9.046;2023-07-31T12:11:46;6.88;;;3.42;;
44704;SDS011;30431;48.520;9.046;2023-07-31T12:14:26;6.75;;;3.50;;
44704;SDS011;30431;48.520;9.046;2023-07-31T12:17:15;6.63;;;2.90;;
44704;SDS011;30431;48.520;9.046;2023-07-31T12:19:48;8.23;;;3.08;;
44704;SDS011;30431;48.520;9.046;2023-07-31T12:22:15;8.68;;;3.92;;
44704;SDS011;30431;48.520;9.046;2023-07-31T12:24:45;4.90;;;2.95;;
44704;SDS011;30431;48.520;9.046;2023-07-31T12:29:41;5.70;;;3.38;;
44704;SDS011;30431;48.520;9.046;2023-07-31T12:34:47;6.18;;;3.03;;
44704;SDS011;30431;48.520;9.046;2023-07-31T12:37:14;4.85;;;3.00;;
44704;SDS011;30431;48.520;9.046;2023-07-31T12:39:41;7.50;;;2.97;;
44704;SDS011;30431;48.520;9.046;2023-07-31T12:42:10;6.28;;;3.22;;
44704;SDS011;30431;48.520;9.046;2023-07-31T12:44:37;5.57;;;2.92;;
44704;SDS011;30431;48.520;9.046;2023-07-31T12:47:04;6.95;;;3.10;;
44704;SDS011;30431;48.520;9.046;2023-07-31T12:49:33;5.45;;;2.92;;
44704;SDS011;30431;48.520;9.046;2023-07-31T12:52:03;8.90;;;3.33;;
44704;SDS011;30431;48.520;9.046;2023-07-31T12:54:30;7.00;;;3.60;;
44704;SDS011;30431;48.520;9.046;2023-07-31T12:56:57;8.05;;;4.03;;
44704;SDS011;30431;48.520;9.046;2023-07-31T12:59:26;7.63;;;3.85;;
44704;SDS011;30431;48.520;9.046;2023-07-31T13:01:58;7.40;;;3.10;;
44704;SDS011;30431;48.520;9.046;2023-07-31T13:04:27;4.70;;;3.03;;
44704;SDS011;30431;48.520;9.046;2023-07-31T13:06:55;5.30;;;3.10;;
44704;SDS011;30431;48.520;9.046;2023-07-31T13:11:51;5.97;;;3.45;;
44704;SDS011;30431;48.520;9.046;2023-07-31T13:14:20;4.03;;;2.92;;
44704;SDS011;30431;48.520;9.046;2023-07-31T13:16:50;6.88;;;4.40;;
44704;SDS011;30431;48.520;9.046;2023-07-31T13:19:17;8.05;;;4.32;;
44704;SDS011;30431;48.520;9.046;2023-07-31T13:21:46;7.85;;;4.70;;
44704;SDS011;30431;48.520;9.046;2023-07-31T13:24:13;7.38;;;3.92;;
44704;SDS011;30431;48.520;9.046;2023-07-31T13:26:41;4.43;;;2.90;;
44704;SDS011;30431;48.520;9.046;2023-07-31T13:31:35;8.23;;;2.90;;
44704;SDS011;30431;48.520;9.046;2023-07-31T13:34:02;5.50;;;3.10;;
44704;SDS011;30431;48.520;9.046;2023-07-31T13:38:56;5.70;;;2.70;;
44704;SDS011;30431;48.520;9.046;2023-07-31T13:41:23;7.32;;;3.08;;
44704;SDS011;30431;48.520;9.046;2023-07-31T13:43:50;4.95;;;3.15;;
44704;SDS011;30431;48.520;9.046;2023-07-31T13:46:17;7.97;;;3.40;;
44704;SDS011;30431;48.520;9.046;2023-07-31T13:51:13;7.45;;;3.25;;
44704;SDS011;30431;48.520;9.046;2023-07-31T13:53:40;4.78;;;3.05;;
44704;SDS011;30431;48.520;9.046;2023-07-31T13:56:07;5.80;;;3.13;;
44704;SDS011;30431;48.520;9.046;2023-07-31T13:58:34;8.23;;;3.20;;
44704;SDS011;30431;48.520;9.046;2023-07-31T14:01:01;5.78;;;2.70;;
44704;SDS011;30431;48.520;9.046;2023-07-31T14:03:32;7.18;;;3.10;;
44704;SDS011;30431;48.520;9.046;2023-07-31T14:06:04;5.82;;;3.10;;
44704;SDS011;30431;48.520;9.046;2023-07-31T14:08:33;5.85;;;3.35;;
44704;SDS011;30431;48.520;9.046;2023-07-31T14:11:03;4.13;;;2.67;;
44704;SDS011;30431;48.520;9.046;2023-07-31T14:13:30;6.90;;;3.60;;
44704;SDS011;30431;48.520;9.046;2023-07-31T14:15:57;6.68;;;2.80;;
44704;SDS011;30431;48.520;9.046;2023-07-31T14:18:24;6.15;;;3.33;;
44704;SDS011;30431;48.520;9.046;2023-07-31T14:20:53;4.82;;;3.13;;
44704;SDS011;30431;48.520;9.046;2023-07-31T14:23:31;9.55;;;3.50;;
44704;SDS011;30431;48.520;9.046;2023-07-31T14:26:00;6.78;;;3.03;;
44704;SDS011;30431;48.520;9.046;2023-07-31T14:30:55;5.13;;;3.35;;
44704;SDS011;30431;48.520;9.046;2023-07-31T14:33:24;7.47;;;4.20;;
44704;SDS011;30431;48.520;9.046;2023-07-31T14:35:51;9.15;;;6.13;;
44704;SDS011;30431;48.520;9.046;2023-07-31T14:43:12;6.47;;;3.85;;
44704;SDS011;30431;48.520;9.046;2023-07-31T14:48:06;6.35;;;3.20;;
44704;SDS011;30431;48.520;9.046;2023-07-31T14:53:03;5.70;;;3.03;;
44704;SDS011;30431;48.520;9.046;2023-07-31T14:55:32;6.18;;;3.17;;
44704;SDS011;30431;48.520;9.046;2023-07-31T14:57:59;4.88;;;2.92;;
44704;SDS011;30431;48.520;9.046;2023-07-31T15:00:29;6.13;;;3.13;;
44704;SDS011;30431;48.520;9.046;2023-07-31T15:02:56;7.30;;;3.35;;
44704;SDS011;30431;48.520;9.046;2023-07-31T15:05:25;5.32;;;3.40;;
44704;SDS011;30431;48.520;9.046;2023-07-31T15:10:21;5.55;;;3.25;;
44704;SDS011;30431;48.520;9.046;2023-07-31T15:12:51;7.15;;;3.58;;
44704;SDS011;30431;48.520;9.046;2023-07-31T15:15:23;7.63;;;4.50;;
44704;SDS011;30431;48.520;9.046;2023-07-31T15:17:50;5.30;;;3.22;;
44704;SDS011;30431;48.520;9.046;2023-07-31T15:22:44;6.28;;;3.40;;
44704;SDS011;30431;48.520;9.046;2023-07-31T15:25:11;7.25;;;3.65;;
44704;SDS011;30431;48.520;9.046;2023-07-31T15:27:38;8.70;;;3.17;;
44704;SDS011;30431;48.520;9.046;2023-07-31T15:30:08;4.80;;;3.22;;
44704;SDS011;30431;48.520;9.046;2023-07-31T15:32:37;7.70;;;3.97;;
44704;SDS011;30431;48.520;9.046;2023-07-31T15:35:06;6.70;;;3.67;;
44704;SDS011;30431;48.520;9.046;2023-07-31T15:37:35;5.88;;;3.10;;
44704;SDS011;30431;48.520;9.046;2023-07-31T15:40:05;6.10;;;3.20;;
44704;SDS011;30431;48.520;9.046;2023-07-31T15:42:35;10.15;;;3.50;;
44704;SDS011;30431;48.520;9.046;2023-07-31T15:45:06;5.30;;;3.13;;
44704;SDS011;30431;48.520;9.046;2023-07-31T15:47:35;5.07;;;3.00;;
44704;SDS011;30431;48.520;9.046;2023-07-31T15:50:02;4.25;;;2.90;;
44704;SDS011;30431;48.520;9.046;2023-07-31T15:52:30;5.68;;;3.63;;
44704;SDS011;30431;48.520;9.046;2023-07-31T15:54:59;8.48;;;3.20;;
44704;SDS011;30431;48.520;9.046;2023-07-31T15:57:26;5.45;;;3.10;;
44704;SDS011;30431;48.520;9.046;2023-07-31T15:59:56;6.00;;;3.60;;
44704;SDS011;30431;48.520;9.046;2023-07-31T16:02:23;6.40;;;3.78;;
44704;SDS011;30431;48.520;9.046;2023-07-31T16:09:44;7.97;;;4.70;;
44704;SDS011;30431;48.520;9.046;2023-07-31T16:12:11;12.95;;;6.70;;
44704;SDS011;30431;48.520;9.046;2023-07-31T16:14:40;10.38;;;5.40;;
44704;SDS011;30431;48.520;9.046;2023-07-31T16:17:07;5.38;;;3.35;;
44704;SDS011;30431;48.520;9.046;2023-07-31T16:19:36;6.78;;;3.30;;
44704;SDS011;30431;48.520;9.046;2023-07-31T16:22:04;5.25;;;3.22;;
44704;SDS011;30431;48.520;9.046;2023-07-31T16:24:31;6.30;;;3.10;;